地図

経路データ

SID SEASON NUMBER BASIN SUBBASIN NAME ISO_TIME NATURE LAT LON WMO_WIND WMO_PRES WMO_AGENCY TRACK_TYPE DIST2LAND LANDFALL IFLAG USA_AGENCY USA_ATCF_ID USA_LAT USA_LON USA_RECORD USA_STATUS USA_WIND USA_PRES USA_SSHS USA_R34_NE USA_R34_SE USA_R34_SW USA_R34_NW USA_R50_NE USA_R50_SE USA_R50_SW USA_R50_NW USA_R64_NE USA_R64_SE USA_R64_SW USA_R64_NW USA_POCI USA_ROCI USA_RMW USA_EYE TOKYO_LAT TOKYO_LON TOKYO_GRADE TOKYO_WIND TOKYO_PRES TOKYO_R50_DIR TOKYO_R50_LONG TOKYO_R50_SHORT TOKYO_R30_DIR TOKYO_R30_LONG TOKYO_R30_SHORT TOKYO_LAND CMA_LAT CMA_LON CMA_CAT CMA_WIND CMA_PRES HKO_LAT HKO_LON HKO_CAT HKO_WIND HKO_PRES NEWDELHI_LAT NEWDELHI_LON NEWDELHI_GRADE NEWDELHI_WIND NEWDELHI_PRES NEWDELHI_CI NEWDELHI_DP NEWDELHI_POCI REUNION_LAT REUNION_LON REUNION_TYPE REUNION_WIND REUNION_PRES REUNION_TNUM REUNION_CI REUNION_RMW REUNION_R34_NE REUNION_R34_SE REUNION_R34_SW REUNION_R34_NW REUNION_R50_NE REUNION_R50_SE REUNION_R50_SW REUNION_R50_NW REUNION_R64_NE REUNION_R64_SE REUNION_R64_SW REUNION_R64_NW BOM_LAT BOM_LON BOM_TYPE BOM_WIND BOM_PRES BOM_TNUM BOM_CI BOM_RMW BOM_R34_NE BOM_R34_SE BOM_R34_SW BOM_R34_NW BOM_R50_NE BOM_R50_SE BOM_R50_SW BOM_R50_NW BOM_R64_NE BOM_R64_SE BOM_R64_SW BOM_R64_NW BOM_ROCI BOM_POCI BOM_EYE BOM_POS_METHOD BOM_PRES_METHOD NADI_LAT NADI_LON NADI_CAT NADI_WIND NADI_PRES WELLINGTON_LAT WELLINGTON_LON WELLINGTON_WIND WELLINGTON_PRES DS824_LAT DS824_LON DS824_STAGE DS824_WIND DS824_PRES TD9636_LAT TD9636_LON TD9636_STAGE TD9636_WIND TD9636_PRES TD9635_LAT TD9635_LON TD9635_WIND TD9635_PRES TD9635_ROCI NEUMANN_LAT NEUMANN_LON NEUMANN_CLASS NEUMANN_WIND NEUMANN_PRES MLC_LAT MLC_LON MLC_CLASS MLC_WIND MLC_PRES USA_GUST BOM_GUST BOM_GUST_PER REUNION_GUST REUNION_GUST_PER USA_SEAHGT USA_SEARAD_NE USA_SEARAD_SE USA_SEARAD_SW USA_SEARAD_NW STORM_SPEED STORM_DIR
1989194N13149 1989 59 WP MM HOPE 1989-07-13 06:00:00 NR 13.3000 149.200 main 1736 1733 O_________O___ jtwc_wp WP091989 13.3000 149.200 15 -1 13.3000 149.200 1 15 12 279
1989194N13149 1989 59 WP MM HOPE 1989-07-13 09:00:00 NR 13.3949 148.584 main 1741 1739 P_________P___ WP091989 13.3954 148.578 17 -1 13.3944 148.590 1 17 12 280
1989194N13149 1989 59 WP MM HOPE 1989-07-13 12:00:00 NR 13.5000 148.000 main 1749 1748 O_________O___ jtwc_wp WP091989 13.5000 148.000 20 -1 13.5000 148.000 1 20 11 282
1989194N13149 1989 59 WP MM HOPE 1989-07-13 15:00:00 NR 13.6285 147.469 main 1758 1758 P_________P___ WP091989 13.6273 147.492 20 -1 13.6297 147.445 1 20 11 286
1989194N13149 1989 59 WP MM HOPE 1989-07-13 18:00:00 NR 13.7986 146.959 main 1781 1781 O_________P___ jtwc_wp WP091989 13.8000 147.000 20 -1 13.7971 146.918 1 20 11 291
1989194N13149 1989 59 WP MM HOPE 1989-07-13 21:00:00 NR 14.0142 146.432 main 1803 1803 P_________P___ WP091989 14.0124 146.457 20 -1 14.0160 146.408 1 20 11 296
1989194N13149 1989 59 WP MM HOPE 1989-07-14 00:00:00 NR 14.3000 145.900 main 1838 1838 O_________O___ jtwc_wp WP091989 14.3000 145.900 20 -1 14.3000 145.900 1 20 12 302
1989194N13149 1989 59 WP MM HOPE 1989-07-14 03:00:00 NR 14.6566 145.373 main 1886 1886 P_________P___ WP091989 14.6699 145.342 20 -1 14.6433 145.403 1 20 13 307
1989194N13149 1989 59 WP MM HOPE 1989-07-14 06:00:00 NR 15.0757 144.851 main 1935 1935 O_________P___ jtwc_wp WP091989 15.1000 144.800 20 -1 15.0513 144.901 1 20 13 311
1989194N13149 1989 59 WP MM HOPE 1989-07-14 09:00:00 NR 15.5216 144.352 main 1986 1986 P_________P___ WP091989 15.5345 144.329 20 -1 15.5087 144.374 1 20 14 312
1989194N13149 1989 59 WP MM HOPE 1989-07-14 12:00:00 NR 16.0000 143.800 main 2018 1964 O_________O___ jtwc_wp WP091989 16.0000 143.800 20 -1 16.0000 143.800 1 20 15 309
1989194N13149 1989 59 WP MM HOPE 1989-07-14 15:00:00 NR 16.4947 143.115 main 1956 1896 P_________P___ WP091989 16.4852 143.072 20 -1 16.5042 143.158 1 21 17 307
1989194N13149 1989 59 WP MM HOPE 1989-07-14 18:00:00 NR 17.0174 142.384 main 1896 1839 O_________P___ jtwc_wp WP091989 17.0000 142.300 20 -1 17.0348 142.467 1 22 17 308
1989194N13149 1989 59 WP MM HOPE 1989-07-14 21:00:00 NR 17.5649 141.692 main 1842 1771 P_________P___ WP091989 17.5571 141.642 22 -1 17.5728 141.742 1 23 17 309
1989194N13149 1989 59 WP MM HOPE 1989-07-15 00:00:00 NR 18.1000 141.000 main 1771 1685 O_________O___ jtwc_wp WP091989 18.1000 141.000 25 -1 18.1000 141.000 1 25 17 308
1989194N13149 1989 59 WP MM HOPE 1989-07-15 03:00:00 NR 18.5951 140.297 main 1685 1610 P_________P___ WP091989 18.5571 140.322 25 -1 18.6331 140.273 1 25 17 306
1989194N13149 1989 59 WP MM HOPE 1989-07-15 06:00:00 NR 19.0731 139.565 main 1600 1519 O_________P___ jtwc_wp WP091989 19.0000 139.600 25 -1 19.1462 139.530 1 25 17 304
1989194N13149 1989 59 WP MM HOPE 1989-07-15 09:00:00 NR 19.5667 138.798 main 1510 1419 P_________P___ WP091989 19.5222 138.823 25 -1 19.6111 138.773 1 25 20 297
1989194N13149 1989 59 WP MM HOPE 1989-07-15 12:00:00 TS 19.9800 137.690 1006 tokyo main 1414 1351 OOO_______O___ jtwc_wp WP091989 20.0000 138.000 25 -1 20.0000 136.500 2 1006 0 0 0 19.8000 136.400 1 23 1005 20.0000 138.000 1 25 21 288
1989194N13149 1989 59 WP MM HOPE 1989-07-15 15:00:00 TS 20.2098 136.704 main 1347 1303 PPP_______P___ WP091989 20.3599 137.142 25 -1 20.0907 135.848 2 1005 0 0 19.8480 135.778 1 23 1005 20.3001 137.156 1 26 18 282
1989194N13149 1989 59 WP MM HOPE 1989-07-15 18:00:00 TS 20.3418 135.853 1004 tokyo main 1303 1266 OOO_______P___ jtwc_wp WP091989 20.6000 136.300 25 -1 20.2000 135.300 2 1004 0 0 0 19.9000 135.200 1 23 1005 20.5213 136.309 1 27 15 279
1989194N13149 1989 59 WP MM HOPE 1989-07-15 21:00:00 TS 20.4309 135.153 main 1266 1239 PPP_______P___ WP091989 20.7300 135.482 27 -1 20.3421 134.920 2 1003 0 0 19.9698 134.705 1 23 1003 20.6816 135.507 1 28 12 280
1989194N13149 1989 59 WP MM HOPE 1989-07-16 00:00:00 TS 20.5500 134.625 1002 tokyo main 1225 1202 OOO_______O___ jtwc_wp WP091989 20.8000 134.800 30 -1 20.5000 134.600 2 1002 0 0 0 20.1000 134.300 1 23 1002 20.8000 134.800 1 30 9 286
1989194N13149 1989 59 WP MM HOPE 1989-07-16 03:00:00 TS 20.6900 134.214 main 1202 1183 PPP_______P___ WP091989 20.9068 134.362 30 -1 20.6499 134.215 2 1001 0 0 20.3271 134.015 1 26 1001 20.8760 134.264 1 30 8 291
1989194N13149 1989 59 WP MM HOPE 1989-07-16 06:00:00 TS 20.8311 133.831 1000 tokyo main 1180 1148 OOO_______P___ jtwc_wp WP091989 21.0000 134.000 30 -1 20.8000 133.800 2 1000 0 0 0 20.6000 133.700 1 29 1000 20.9244 133.822 1 30 8 289
1989194N13149 1989 59 WP MM HOPE 1989-07-16 09:00:00 TS 20.9608 133.376 main 1148 1127 PPP_______P___ WP091989 21.0348 133.530 30 -1 20.9572 133.380 2 999 0 0 20.8653 133.173 1 29 999 20.9858 133.420 1 30 9 287
1989194N13149 1989 59 WP MM HOPE 1989-07-16 12:00:00 TS 21.1059 132.865 35 998 tokyo main 1127 1091 OOOO______O___ jtwc_wp WP091989 21.1000 133.000 30 -1 21.1000 132.900 3 35 998 0 9 50 50 0 21.1000 132.600 1 29 998 21.2000 132.700 TD 25 1002 21.1000 133.000 1 30 10 287
1989194N13149 1989 59 WP MM HOPE 1989-07-16 15:00:00 TS 21.2590 132.316 main 1094 1048 PPPP______P___ WP091989 21.2551 132.400 32 -1 21.1852 132.300 3 40 995 0 9 65 65 21.2348 132.127 1 33 996 21.3703 132.245 TD 27 1001 21.3054 132.471 1 31 11 290
1989194N13149 1989 59 WP MM HOPE 1989-07-16 18:00:00 TS 21.4669 131.782 45 992 tokyo main 1051 1009 OOOO______P___ jtwc_wp WP091989 21.5000 131.800 35 0 21.3000 131.700 3 45 992 0 9 80 80 0 21.4000 131.700 2 38 995 21.6000 131.800 TD 30 1000 21.5677 131.915 1 32 11 298
1989194N13149 1989 59 WP MM HOPE 1989-07-16 21:00:00 TS 21.7640 131.301 main 1006 956 PPPP______P___ WP091989 21.8198 131.270 35 0 21.4972 131.220 3 45 991 0 9 80 80 21.7048 131.300 2 38 995 21.9272 131.365 TD 30 1000 21.8710 131.352 1 33 11 307
1989194N13149 1989 59 WP MM HOPE 1989-07-17 00:00:00 TS 22.1200 130.840 45 990 tokyo main 947 894 OOOO______O___ jtwc_wp WP091989 22.2000 130.800 35 0 21.8000 130.800 3 45 990 0 9 80 80 0 22.1000 130.900 2 38 995 22.3000 130.900 TD 30 1000 22.2000 130.800 2 35 11 312
1989194N13149 1989 59 WP MM HOPE 1989-07-17 03:00:00 TS 22.5088 130.401 main 894 833 PPPP______P___ WP091989 22.6070 130.415 37 0 22.2047 130.407 3 45 990 0 9 80 80 22.5418 130.517 2 38 995 22.6422 130.387 TD 27 1001 22.5482 130.278 2 36 12 313
1989194N13149 1989 59 WP MM HOPE 1989-07-17 06:00:00 TS 22.9229 129.914 45 990 tokyo main 833 763 OOOO______P___ jtwc_wp WP091989 23.0000 130.000 40 0 22.7000 130.000 3 45 990 0 9 80 80 0 23.0000 130.000 2 38 995 23.0000 129.800 TD 25 1002 22.9143 129.770 2 37 13 309
1989194N13149 1989 59 WP MM HOPE 1989-07-17 09:00:00 TS 23.3415 129.290 main 763 693 PPPP______P___ WP091989 23.3153 129.407 40 0 23.2725 129.515 3 45 990 0 9 80 80 23.4160 129.165 2 38 992 23.4304 129.086 TD 27 1001 23.2733 129.278 2 38 14 305
1989194N13149 1989 59 WP MM HOPE 1989-07-17 12:00:00 TS 23.7200 128.660 45 990 tokyo main 693 636 OOOO______O___ jtwc_wp WP091989 23.6000 128.800 40 0 23.8000 129.000 3 45 990 0 9 80 80 0 23.8000 128.300 2 38 990 23.8000 128.400 TD 30 1000 23.6000 128.800 2 40 13 303
1989194N13149 1989 59 WP MM HOPE 1989-07-17 15:00:00 TS 24.0182 128.142 main 626 582 PPPP______P___ WP091989 23.9221 128.327 42 0 24.1522 128.507 3 45 990 0 9 80 80 24.1720 127.675 2 38 990 23.9796 127.889 TD 32 999 23.8648 128.310 2 41 10 301
1989194N13149 1989 59 WP MM HOPE 1989-07-17 18:00:00 TS 24.2590 127.688 45 990 tokyo main 580 537 OOOO______P___ jtwc_wp WP091989 24.2000 127.900 45 0 24.4000 128.000 3 45 990 0 9 80 80 0 24.5000 127.200 2 38 990 24.1000 127.500 TS 35 998 24.0949 127.839 2 42 9 299
1989194N13149 1989 59 WP MM HOPE 1989-07-17 21:00:00 TS 24.4770 127.241 main 527 495 PPPP______P___ WP091989 24.3650 127.427 45 0 24.6303 127.413 3 45 990 0 9 80 80 24.7873 126.782 2 38 990 24.2997 127.185 TS 37 996 24.3024 127.398 2 43 9 298
1989194N13149 1989 59 WP MM HOPE 1989-07-18 00:00:00 TS 24.6600 126.860 45 990 tokyo main 495 464 OOOO______O___ jtwc_wp WP091989 24.5000 127.000 45 0 24.8000 126.900 3 45 990 0 9 80 80 0 25.0000 126.500 2 38 990 24.5000 126.900 TS 40 995 24.5000 127.000 2 45 7 299
1989194N13149 1989 59 WP MM HOPE 1989-07-18 03:00:00 TS 24.8101 126.576 main 464 433 PPPP______P___ WP091989 24.6923 126.677 47 0 24.8996 126.612 3 45 990 0 9 102 90 25.1223 126.385 2 43 987 24.6500 126.550 TS 40 995 24.6862 126.656 2 46 6 302
1989194N13149 1989 59 WP MM HOPE 1989-07-18 06:00:00 TS 24.9538 126.331 45 990 tokyo main 433 412 OOOO______P___ jtwc_wp WP091989 24.9000 126.400 50 0 25.0000 126.400 3 45 990 0 1 125 100 0 25.2000 126.300 3 48 985 24.8000 126.200 TS 40 995 24.8691 126.354 2 47 6 303
1989194N13149 1989 59 WP MM HOPE 1989-07-18 09:00:00 TS 25.1185 126.052 main 412 383 PPPP______P___ WP091989 25.0924 126.100 50 0 25.1699 126.115 3 45 990 0 1 137 112 25.2850 126.080 3 48 985 24.9774 125.892 TS 40 995 25.0676 126.075 2 48 6 305
1989194N13149 1989 59 WP MM HOPE 1989-07-18 12:00:00 TS 25.3200 125.760 45 990 tokyo main 383 356 OOOO______O___ jtwc_wp WP091989 25.3000 125.800 50 0 25.4000 125.800 3 45 990 0 1 150 125 0 25.4000 125.800 3 48 985 25.2000 125.600 TS 40 995 25.3000 125.800 2 50 7 309
1989194N13149 1989 59 WP MM HOPE 1989-07-18 15:00:00 TS 25.5631 125.445 main 348 333 PPPP______P___ WP091989 25.5199 125.500 52 0 25.6851 125.435 3 45 990 0 1 150 125 25.5400 125.507 3 48 985 25.4775 125.292 TS 40 995 25.5931 125.488 2 51 8 314
1989194N13149 1989 59 WP MM HOPE 1989-07-18 18:00:00 TS 25.8640 125.136 45 990 tokyo main 326 315 OOOO______P___ jtwc_wp WP091989 25.8000 125.200 55 0 26.0000 125.100 3 45 990 0 1 150 125 0 25.8000 125.200 3 48 985 25.8000 125.000 TS 40 995 25.9200 125.178 2 52 9 322
1989194N13149 1989 59 WP MM HOPE 1989-07-18 21:00:00 TS 26.2393 124.858 main 320 312 PPPP______P___ WP091989 26.1925 124.893 55 0 26.3073 124.885 3 45 990 0 1 137 112 26.2999 124.900 3 48 985 26.1350 124.735 TS 42 995 26.2619 124.879 2 53 9 328
1989194N13149 1989 59 WP MM HOPE 1989-07-19 00:00:00 TS 26.6200 124.600 45 990 tokyo main 315 308 OOOO______O___ jtwc_wp WP091989 26.6000 124.600 55 0 26.6000 124.700 3 45 990 0 1 125 100 0 26.8000 124.600 3 48 985 26.5000 124.500 TS 45 995 26.6000 124.600 2 55 8 326
1989194N13149 1989 59 WP MM HOPE 1989-07-19 03:00:00 TS 26.9311 124.333 main 308 274 PPPP______P___ WP091989 26.9149 124.335 55 0 26.8501 124.442 3 45 991 0 1 125 100 27.0451 124.270 3 48 985 26.9225 124.270 TS 47 992 26.9232 124.349 2 55 7 323
1989194N13149 1989 59 WP MM HOPE 1989-07-19 06:00:00 TS 27.2074 124.104 45 992 tokyo main 274 256 OOOO______P___ jtwc_wp WP091989 27.2000 124.100 55 0 27.1000 124.200 3 45 992 0 1 125 100 0 27.2000 124.000 3 48 985 27.3000 124.100 STS 50 990 27.2372 124.120 2 55 6 328
1989194N13149 1989 59 WP MM HOPE 1989-07-19 09:00:00 TS 27.4634 123.952 main 251 225 PPPP______P___ WP091989 27.4999 123.892 55 0 27.3924 124.042 3 42 993 0 1 125 100 27.3774 123.877 3 48 985 27.5149 124.042 STS 50 990 27.5326 123.905 2 55 6 334
1989194N13149 1989 59 WP MM HOPE 1989-07-19 12:00:00 TS 27.7200 123.820 40 994 tokyo main 225 208 OOOO______O___ jtwc_wp WP091989 27.8000 123.700 55 0 27.7000 123.900 3 40 994 0 1 125 100 0 27.6000 123.800 3 48 985 27.7000 124.000 STS 50 990 27.8000 123.700 2 55 6 335
1989194N13149 1989 59 WP MM HOPE 1989-07-19 15:00:00 TS 28.0295 123.659 main 208 177 PPPP______P___ WP091989 28.1300 123.500 55 0 28.0150 123.708 3 40 994 0 1 125 100 27.9499 123.687 3 48 985 27.9998 123.902 STS 50 990 28.0529 123.497 2 55 7 332
1989194N13149 1989 59 WP MM HOPE 1989-07-19 18:00:00 TS 28.3149 123.460 40 994 tokyo main 177 140 OOOO______P___ jtwc_wp WP091989 28.4000 123.300 55 0 28.3000 123.500 3 40 994 0 2 125 100 0 28.3000 123.500 3 48 985 28.3000 123.700 STS 50 990 28.2747 123.300 2 55 6 320
1989194N13149 1989 59 WP MM HOPE 1989-07-19 21:00:00 TS 28.5264 123.194 main 140 103 PPPP______P___ WP091989 28.5375 123.100 55 0 28.5300 123.300 3 40 995 0 2 125 112 28.5378 123.150 3 48 985 28.5678 123.316 STS 52 987 28.4592 123.103 2 55 6 306
1989194N13149 1989 59 WP MM HOPE 1989-07-20 00:00:00 TS 28.6600 122.920 40 996 tokyo main 103 87 OOOO______O___ jtwc_wp WP091989 28.6000 122.900 55 0 28.7000 123.100 3 40 996 0 9 125 125 0 28.7000 122.800 3 48 985 28.7000 122.900 STS 55 985 28.6000 122.900 2 55 5 292
1989194N13149 1989 59 WP MM HOPE 1989-07-20 03:00:00 TS 28.7060 122.700 main 87 74 PPPP______P___ WP091989 28.6574 122.707 50 0 28.8225 122.900 3 40 996 0 9 125 125 28.8223 122.620 3 48 985 28.5349 122.589 STS 57 982 28.6931 122.682 2 50 4 281
1989194N13149 1989 59 WP MM HOPE 1989-07-20 06:00:00 TS 28.7290 122.511 40 996 tokyo main 74 59 OOOO______P___ jtwc_wp WP091989 28.7000 122.500 45 0 28.9000 122.700 3 40 996 0 9 125 125 0 28.9000 122.500 3 48 985 28.4000 122.400 STS 60 980 28.7449 122.457 2 45 3 293
1989194N13149 1989 59 WP MM HOPE 1989-07-20 09:00:00 TS 28.8308 122.358 main 59 38 PPPP______P___ WP091989 28.7500 122.257 40 0 28.9650 122.492 3 40 996 0 9 125 125 28.9872 122.395 3 53 982 28.6773 122.415 STS 60 980 28.7743 122.229 2 40 3 303
1989194N13149 1989 59 WP MM HOPE 1989-07-20 12:00:00 TS 28.9200 122.180 40 996 tokyo main 38 19 OOOO______O___ jtwc_wp WP091989 28.8000 122.000 35 0 29.0000 122.300 3 40 996 0 9 125 125 0 29.0000 122.200 3 58 980 29.0000 122.400 STS 60 980 28.8000 122.000 2 35 4 281
1989194N13149 1989 59 WP MM HOPE 1989-07-20 15:00:00 TS 28.9102 121.894 main 19 0 PPPP______P___ WP091989 28.8500 121.742 32 -1 28.9924 122.150 3 40 996 0 9 125 125 28.8357 121.719 3 67 977 29.0228 122.080 STS 60 980 28.8499 121.780 2 33 5 268
1989194N13149 1989 59 WP MM HOPE 1989-07-20 18:00:00 TS 28.9000 121.612 40 996 tokyo main 0 0 OOOO______P___ jtwc_wp WP091989 28.9000 121.500 30 -1 29.0000 122.000 3 40 996 0 9 125 125 0 28.7000 121.300 4 77 975 29.0000 121.700 STS 60 980 28.8998 121.560 2 32 4 279
1989194N13149 1989 59 WP MM HOPE 1989-07-20 21:00:00 TS 28.9728 121.452 main 0 0 PPPP______P___ WP091989 28.9499 121.300 30 -1 29.0850 121.808 3 40 998 0 9 107 82 28.7748 121.312 4 62 982 29.1047 121.507 STS 50 987 28.9499 121.335 2 31 3 308
1989194N13149 1989 59 WP MM HOPE 1989-07-21 00:00:00 TS 29.1000 121.324 40 1000 tokyo main 0 0 OOOO______O___ jtwc_wp WP091989 29.0000 121.100 30 -1 29.2000 121.600 3 40 1000 0 2 90 40 0 29.0000 121.400 3 48 990 29.3000 121.300 TS 40 995 29.0000 121.100 1 30 4 319
1989194N13149 1989 59 WP MM HOPE 1989-07-21 03:00:00 TS 29.2826 121.141 main 0 0 PPPP______P___ WP091989 29.0501 120.863 27 -1 29.3000 121.400 3 1001 0 2 29.3499 121.260 3 43 992 29.5780 120.948 TS 37 997 29.0501 120.853 1 27 5 321
1989194N13149 1989 59 WP MM HOPE 1989-07-21 06:00:00 TS 29.5000 120.955 1002 tokyo main 0 0 OOOO______O___ jtwc_wp WP091989 29.1000 120.600 25 -1 29.4000 121.200 2 1002 0 0 0 29.7000 121.000 2 38 995 29.9000 120.500 TS 35 1000 29.1000 120.600 1 25 5 325
1989194N13149 1989 59 WP MM HOPE 1989-07-21 09:00:00 TS 29.7014 120.810 main 0 0 _PP___________ WP091989 -1 29.5000 121.000 2 1002 0 0 29.9028 120.620 2 28 998 TS 1 5 311
1989194N13149 1989 59 WP MM HOPE 1989-07-21 12:00:00 TS 29.8000 120.550 1002 tokyo main 0 0 _OO___________ -1 29.6000 120.800 2 1002 0 0 0 30.0000 120.300 1 19 1002 3 296
1989194N13149 1989 59 WP MM HOPE 1989-07-21 15:00:00 TS 29.8422 120.472 main 0 0 _PP___________ -1 29.7000 120.600 2 1002 0 0 29.9844 120.344 1 19 1002 2 302
1989194N13149 1989 59 WP MM HOPE 1989-07-21 18:00:00 TS 29.9143 120.343 1002 tokyo main 0 0 _OO___________ -1 29.8000 120.400 2 1002 0 0 0 30.0000 120.300 1 19 1002 6 298
1989194N13149 1989 59 WP MM HOPE 1989-07-21 21:00:00 TS 30.1344 119.834 main 0 0 _PP___________ -1 29.9001 120.200 2 1002 0 0 30.2516 119.652 1 19 1002 11 296
1989194N13149 1989 59 WP MM HOPE 1989-07-22 00:00:00 TS 30.4000 119.200 1002 tokyo main 0 0 _OO___________ -1 30.0000 120.000 2 1002 0 0 0 30.5000 119.000 1 19 1002 9 295
1989194N13149 1989 59 WP MM HOPE 1989-07-22 03:00:00 TS 30.4995 118.917 main 0 0 __P___________ -1 2 0 0 30.4995 118.917 1 19 1002 2 300
1989194N13149 1989 59 WP MM HOPE 1989-07-22 06:00:00 TS 30.5000 119.000 main 0 0 __O___________ -1 30.5000 119.000 1 19 1002 3 0
1989194N13149 1989 59 WP MM HOPE 1989-07-22 09:00:00 TS 30.7500 118.900 main 0 0 __P___________ -1 30.7500 118.900 1 18 1002 5 341
1989194N13149 1989 59 WP MM HOPE 1989-07-22 12:00:00 TS 31.0000 118.800 main 0 0 __O___________ -1 31.0000 118.800 1 17 1002 3 345
1989194N13149 1989 59 WP MM HOPE 1989-07-22 15:00:00 TS 31.0149 118.822 main 0 0 __P___________ -1 31.0149 118.822 1 17 1002 0 0
1989194N13149 1989 59 WP MM HOPE 1989-07-22 18:00:00 TS 31.0000 118.800 main 0 0 __O___________ -1 31.0000 118.800 1 17 1002 2 296
1989194N13149 1989 59 WP MM HOPE 1989-07-22 21:00:00 TS 31.1077 118.605 main 0 0 __P___________ -1 31.1077 118.605 1 17 1002 5 305
1989194N13149 1989 59 WP MM HOPE 1989-07-23 00:00:00 TS 31.3000 118.300 main 0 __O___________ -1 31.3000 118.300 1 17 1002 6 306

デジタル台風データ・検索

IBTrACS Databaseについて

本データベースは、米国NOAAが公開する1842年以降の世界の熱帯低気圧のベストトラックデータアーカイブInternational Best Track Archive for Climate Stewardship (IBTrACS)を、ウェブで閲覧しやすい形式に変換したものです。

最終更新日:2021-12-01